Time;durP1;ratioP1;P1;durP2;ratioP2;P2;SDS_P1;SDS_P2;PMS_P1;PMS_P2;Temp;Humidity;BMP_temperature;BMP_pressure;BME280_temperature;BME280_humidity;BME280_pressure;Samples;Min_cycle;Max_cycle;Signal;HPM_P1;HPM_P2
2021/11/23 00:01:26;;;;;;;0.00;0.00;;;7.30;62.40;;;;;;5052990;28;20060;-70
2021/11/23 00:03:52;;;;;;;0.00;0.00;;;7.30;62.40;;;;;;5051755;28;20116;-70
2021/11/23 00:06:18;;;;;;;0.00;0.00;;;7.30;62.40;;;;;;5052753;28;20029;-70
2021/11/23 00:08:44;;;;;;;0.00;0.00;;;7.30;62.70;;;;;;5052762;28;20075;-71
2021/11/23 00:11:10;;;;;;;0.00;0.00;;;7.30;62.50;;;;;;5053169;28;20033;-72
2021/11/23 00:13:36;;;;;;;0.00;0.00;;;7.30;62.50;;;;;;5052928;28;20025;-72
2021/11/23 00:16:02;;;;;;;0.00;0.00;;;7.30;62.60;;;;;;5053205;28;20029;-72
2021/11/23 00:18:28;;;;;;;0.00;0.00;;;7.40;62.70;;;;;;5052571;28;20033;-72
2021/11/23 00:20:54;;;;;;;0.00;0.00;;;7.40;62.60;;;;;;5053182;28;20194;-72
2021/11/23 00:23:20;;;;;;;0.00;0.00;;;7.40;62.50;;;;;;5053088;28;20029;-72
2021/11/23 00:25:46;;;;;;;0.00;0.00;;;7.40;62.60;;;;;;5052954;28;20506;-72
2021/11/23 00:28:12;;;;;;;0.00;0.00;;;7.50;62.60;;;;;;5052949;28;20025;-72
2021/11/23 00:30:40;;;;;;;0.00;0.00;;;7.50;63.20;;;;;;5052704;28;20171;-72
2021/11/23 00:33:07;;;;;;;0.00;0.00;;;7.50;62.60;;;;;;5052857;28;20029;-72
2021/11/23 00:35:32;;;;;;;0.00;0.00;;;7.50;62.50;;;;;;5052703;28;20118;-72
2021/11/23 00:37:59;;;;;;;0.00;0.00;;;7.50;62.50;;;;;;5052896;28;20470;-72
2021/11/23 00:40:25;;;;;;;0.00;0.00;;;7.60;62.40;;;;;;5056577;28;20043;-72
2021/11/23 00:42:51;;;;;;;0.00;0.00;;;7.60;62.20;;;;;;5056446;28;20456;-72
2021/11/23 00:45:17;;;;;;;0.00;0.00;;;7.50;62.20;;;;;;5056193;28;20056;-72
2021/11/23 00:47:44;;;;;;;0.00;0.00;;;7.50;62.20;;;;;;5056304;28;20032;-72
2021/11/23 00:50:11;;;;;;;0.00;0.00;;;7.40;62.20;;;;;;5056223;28;20033;-72
2021/11/23 00:52:37;;;;;;;0.00;0.00;;;7.40;62.30;;;;;;5056120;28;20043;-72
2021/11/23 00:55:07;;;;;;;0.00;0.00;;;7.40;62.30;;;;;;5055925;28;20481;-72
2021/11/23 00:57:33;;;;;;;0.00;0.00;;;7.40;62.30;;;;;;5055985;28;20054;-72
2021/11/23 00:59:58;;;;;;;0.00;0.00;;;7.40;62.30;;;;;;5056266;28;20067;-72
2021/11/23 01:02:24;;;;;;;0.00;0.00;;;7.40;62.30;;;;;;5055559;28;20029;-72
2021/11/23 01:04:50;;;;;;;0.00;0.00;;;7.40;62.10;;;;;;5056016;28;20105;-72
2021/11/23 01:07:15;;;;;;;0.00;0.00;;;7.40;62.00;;;;;;5055759;28;20091;-72
2021/11/23 01:09:41;;;;;;;0.00;0.00;;;7.30;62.00;;;;;;5055739;28;20112;-72
2021/11/23 01:12:07;;;;;;;0.00;0.00;;;7.30;62.00;;;;;;5055887;28;20079;-71
2021/11/23 01:14:35;;;;;;;0.00;0.00;;;7.30;61.90;;;;;;5055619;28;20025;-72
2021/11/23 01:17:01;;;;;;;0.00;0.00;;;7.20;61.80;;;;;;5054512;28;20060;-72
2021/11/23 01:19:27;;;;;;;0.00;0.00;;;7.30;61.70;;;;;;5055930;28;20069;-72
2021/11/23 01:21:53;;;;;;;0.00;0.00;;;7.20;61.40;;;;;;5055973;28;20037;-72
2021/11/23 01:24:18;;;;;;;0.00;0.00;;;7.20;61.20;;;;;;5055591;28;20060;-75
2021/11/23 01:26:44;;;;;;;0.00;0.00;;;7.10;61.20;;;;;;5055607;28;20025;-72
2021/11/23 01:29:10;;;;;;;0.00;0.00;;;7.10;61.20;;;;;;5055510;28;20420;-72
2021/11/23 01:31:36;;;;;;;0.00;0.00;;;7.10;61.30;;;;;;5055656;28;20036;-72
2021/11/23 01:34:03;;;;;;;0.00;0.00;;;7.10;61.40;;;;;;5055473;28;20036;-72
2021/11/23 01:36:28;;;;;;;0.00;0.00;;;7.10;61.40;;;;;;5055172;28;20063;-72
2021/11/23 01:38:54;;;;;;;0.00;0.00;;;7.10;61.10;;;;;;5055055;28;20444;-72
2021/11/23 01:41:20;;;;;;;0.00;0.00;;;7.10;61.10;;;;;;5055302;28;20025;-73
2021/11/23 01:43:46;;;;;;;0.00;0.00;;;7.10;61.10;;;;;;5055684;28;20122;-72
2021/11/23 01:46:11;;;;;;;0.00;0.00;;;7.00;61.20;;;;;;5055188;28;20075;-72
2021/11/23 01:48:37;;;;;;;0.00;0.00;;;7.00;61.30;;;;;;5055079;28;20029;-72
2021/11/23 01:51:05;;;;;;;0.00;0.00;;;7.00;61.10;;;;;;5054918;28;20035;-71
2021/11/23 01:53:31;;;;;;;0.00;0.00;;;7.00;60.90;;;;;;5054738;28;20508;-72
2021/11/23 01:55:57;;;;;;;0.00;0.00;;;7.00;61.00;;;;;;5055086;28;20103;-72
2021/11/23 01:58:23;;;;;;;0.00;0.00;;;7.00;61.10;;;;;;5055219;28;20070;-72
2021/11/23 02:00:49;;;;;;;0.00;0.00;;;7.00;61.00;;;;;;5055092;28;20028;-71
2021/11/23 02:03:15;;;;;;;0.00;0.00;;;7.00;61.20;;;;;;5054608;28;20398;-72
2021/11/23 02:05:41;;;;;;;0.00;0.00;;;7.00;61.20;;;;;;5054799;28;20108;-72
2021/11/23 02:08:10;;;;;;;0.00;0.00;;;6.90;61.20;;;;;;5054478;28;20522;-72
2021/11/23 02:10:36;;;;;;;0.00;0.00;;;6.90;61.20;;;;;;5054505;28;20037;-71
2021/11/23 02:13:02;;;;;;;0.00;0.00;;;6.80;61.20;;;;;;5054689;28;20028;-72
2021/11/23 02:15:28;;;;;;;0.00;0.00;;;6.80;61.20;;;;;;5054581;28;20057;-72
2021/11/23 02:17:55;;;;;;;0.00;0.00;;;6.70;61.40;;;;;;5054359;28;20064;-72
2021/11/23 02:20:22;;;;;;;0.00;0.00;;;6.70;61.40;;;;;;5054562;28;20073;-72
2021/11/23 02:22:50;;;;;;;0.00;0.00;;;6.70;61.50;;;;;;5054586;28;20021;-71
2021/11/23 02:25:17;;;;;;;0.00;0.00;;;6.70;61.50;;;;;;5054263;28;20478;-72
2021/11/23 02:27:47;;;;;;;0.00;0.00;;;6.80;61.60;;;;;;5054395;28;20078;-72
2021/11/23 02:30:14;;;;;;;0.00;0.00;;;6.70;61.40;;;;;;5054293;28;20056;-72
2021/11/23 02:32:52;;;;;;;0.00;0.00;;;6.80;61.20;;;;;;5054346;28;20036;-72
2021/11/23 02:35:19;;;;;;;0.00;0.00;;;6.70;61.30;;;;;;5054238;28;20427;-72
2021/11/23 02:37:48;;;;;;;0.00;0.00;;;6.80;61.40;;;;;;5054417;28;20036;-72
2021/11/23 02:40:14;;;;;;;0.00;0.00;;;6.80;61.50;;;;;;5054120;28;20033;-72
2021/11/23 02:42:40;;;;;;;0.00;0.00;;;6.80;61.40;;;;;;5053748;28;20398;-72
2021/11/23 02:45:07;;;;;;;0.00;0.00;;;6.70;61.10;;;;;;5054053;28;20112;-71
2021/11/23 02:47:38;;;;;;;0.00;0.00;;;6.80;61.10;;;;;;5054145;28;20036;-72
2021/11/23 02:50:06;;;;;;;0.00;0.00;;;6.70;61.10;;;;;;5053869;28;20033;-72
2021/11/23 02:52:32;;;;;;;0.00;0.00;;;6.70;61.20;;;;;;5053881;28;20374;-72
2021/11/23 02:54:59;;;;;;;0.00;0.00;;;6.80;61.30;;;;;;5054054;28;20024;-72
2021/11/23 02:57:30;;;;;;;0.00;0.00;;;6.80;61.30;;;;;;5053455;28;20040;-72
2021/11/23 02:59:56;;;;;;;0.00;0.00;;;6.80;61.30;;;;;;5052856;28;20029;-71
2021/11/23 03:02:22;;;;;;;0.00;0.00;;;6.80;61.30;;;;;;5053200;28;20052;-72
2021/11/23 03:04:55;;;;;;;0.00;0.00;;;6.80;61.30;;;;;;5053941;28;20110;-72
2021/11/23 03:07:23;;;;;;;0.00;0.00;;;6.70;61.10;;;;;;5053775;28;20379;-72
2021/11/23 03:09:48;;;;;;;0.00;0.00;;;6.70;61.00;;;;;;5053550;28;20029;-72
2021/11/23 03:12:16;;;;;;;0.00;0.00;;;6.70;61.10;;;;;;5053706;28;20029;-72
2021/11/23 03:14:42;;;;;;;0.00;0.00;;;6.70;61.10;;;;;;5053262;28;20025;-72
2021/11/23 03:17:08;;;;;;;0.00;0.00;;;6.70;61.20;;;;;;5052215;28;20044;-71
2021/11/23 03:19:34;;;;;;;0.00;0.00;;;6.60;61.10;;;;;;5053472;28;20040;-72
2021/11/23 03:22:02;;;;;;;0.00;0.00;;;6.70;61.00;;;;;;5053574;28;20080;-72
2021/11/23 03:24:28;;;;;;;0.03;0.00;;;6.60;61.00;;;;;;5053377;28;20025;-72
2021/11/23 03:26:54;;;;;;;0.00;0.00;;;6.60;61.00;;;;;;5053293;28;20067;-72
2021/11/23 03:29:19;;;;;;;0.00;0.00;;;6.50;61.10;;;;;;5053462;28;20037;-72
2021/11/23 03:31:45;;;;;;;0.00;0.00;;;6.50;61.20;;;;;;5053584;28;20021;-72
2021/11/23 03:34:11;;;;;;;0.00;0.00;;;6.50;61.20;;;;;;5053411;28;20503;-72
2021/11/23 03:36:40;;;;;;;0.00;0.00;;;6.50;61.20;;;;;;5052976;28;20052;-71
2021/11/23 03:39:07;;;;;;;0.00;0.00;;;6.40;61.20;;;;;;5053408;28;20078;-72
2021/11/23 03:41:32;;;;;;;0.00;0.00;;;6.40;61.30;;;;;;5052962;28;20055;-72
2021/11/23 03:43:58;;;;;;;0.00;0.00;;;6.40;62.10;;;;;;5052117;28;20025;-71
2021/11/23 03:46:24;;;;;;;0.00;0.00;;;6.30;61.50;;;;;;5053140;28;20466;-71
2021/11/23 03:48:49;;;;;;;0.00;0.00;;;6.30;62.00;;;;;;5053428;28;20060;-72
2021/11/23 03:51:15;;;;;;;0.00;0.00;;;6.20;62.10;;;;;;5053338;28;20037;-72
2021/11/23 03:53:41;;;;;;;0.00;0.00;;;6.20;62.20;;;;;;5052913;28;20029;-72
2021/11/23 03:56:07;;;;;;;0.00;0.00;;;6.20;62.50;;;;;;5053241;28;20064;-72
2021/11/23 03:58:33;;;;;;;0.00;0.00;;;6.20;62.50;;;;;;5053120;28;20074;-72
2021/11/23 04:00:58;;;;;;;0.00;0.00;;;6.20;62.50;;;;;;5053270;28;20029;-72
2021/11/23 04:03:24;;;;;;;0.00;0.00;;;6.20;62.50;;;;;;5052962;28;20053;-72
2021/11/23 04:05:50;;;;;;;0.00;0.00;;;6.20;62.20;;;;;;5052782;28;20527;-72
2021/11/23 04:08:15;;;;;;;0.00;0.00;;;6.20;62.20;;;;;;5053335;28;20033;-72
2021/11/23 04:10:42;;;;;;;0.00;0.00;;;6.10;62.20;;;;;;5052943;28;20143;-72
2021/11/23 04:13:08;;;;;;;0.00;0.00;;;6.10;62.20;;;;;;5053170;28;20032;-71
2021/11/23 04:15:36;;;;;;;0.00;0.00;;;6.10;62.40;;;;;;5056787;28;20025;-71
2021/11/23 04:18:02;;;;;;;0.00;0.00;;;6.10;62.50;;;;;;5056847;28;20108;-72
2021/11/23 04:20:28;;;;;;;0.00;0.00;;;6.10;62.40;;;;;;5056811;28;20112;-71
2021/11/23 04:22:54;;;;;;;0.00;0.00;;;6.10;62.40;;;;;;5056701;28;20443;-72
2021/11/23 04:25:20;;;;;;;0.00;0.00;;;6.10;62.30;;;;;;5056850;28;20025;-72
2021/11/23 04:27:45;;;;;;;0.00;0.00;;;6.10;62.30;;;;;;5056644;28;20123;-72
2021/11/23 04:30:12;;;;;;;0.00;0.00;;;6.00;62.00;;;;;;5055953;28;20116;-71
2021/11/23 04:32:39;;;;;;;0.00;0.00;;;6.10;62.10;;;;;;5056532;28;20029;-72
2021/11/23 04:35:06;;;;;;;0.00;0.00;;;6.00;62.10;;;;;;5056281;28;20033;-72
2021/11/23 04:37:31;;;;;;;0.00;0.00;;;6.00;62.00;;;;;;5056394;28;20048;-74
2021/11/23 04:39:57;;;;;;;0.00;0.00;;;6.00;62.10;;;;;;5056555;28;20029;-72
2021/11/23 04:42:23;;;;;;;0.00;0.00;;;6.00;62.00;;;;;;5056027;28;20356;-71
2021/11/23 04:44:49;;;;;;;0.00;0.00;;;6.00;62.00;;;;;;5056184;28;20032;-71
2021/11/23 04:47:14;;;;;;;0.00;0.00;;;6.00;62.10;;;;;;5056223;28;20029;-71
2021/11/23 04:49:40;;;;;;;0.00;0.00;;;6.00;62.00;;;;;;5056122;28;20037;-71
2021/11/23 04:52:06;;;;;;;0.00;0.00;;;6.00;62.00;;;;;;5056209;28;20033;-71
2021/11/23 04:54:33;;;;;;;0.00;0.00;;;6.00;62.00;;;;;;5055999;28;20448;-71
2021/11/23 04:56:59;;;;;;;0.00;0.00;;;6.00;62.00;;;;;;5056412;28;20101;-70
2021/11/23 04:59:25;;;;;;;0.00;0.00;;;6.00;62.00;;;;;;5055802;28;20056;-71
2021/11/23 05:01:50;;;;;;;0.00;0.00;;;6.10;61.90;;;;;;5055594;28;20028;-72
2021/11/23 05:04:16;;;;;;;0.00;0.00;;;6.10;61.80;;;;;;5056419;28;20033;-71
2021/11/23 05:06:42;;;;;;;0.00;0.00;;;6.10;61.80;;;;;;5055552;28;20025;-72
2021/11/23 05:09:07;;;;;;;0.00;0.00;;;6.10;61.80;;;;;;5055814;28;20029;-72
2021/11/23 05:11:36;;;;;;;0.00;0.00;;;6.10;61.70;;;;;;5055734;28;20035;-71
2021/11/23 05:14:01;;;;;;;0.00;0.00;;;6.10;61.70;;;;;;5055678;28;20025;-72
2021/11/23 05:16:27;;;;;;;0.00;0.00;;;6.10;61.30;;;;;;5055685;28;20025;-71
2021/11/23 05:18:53;;;;;;;0.00;0.00;;;6.10;61.10;;;;;;5055835;28;20163;-72
2021/11/23 05:21:19;;;;;;;0.00;0.00;;;6.10;61.00;;;;;;5055572;28;20107;-71
2021/11/23 05:23:45;;;;;;;0.00;0.00;;;6.10;61.00;;;;;;5056045;28;20056;-72
2021/11/23 05:26:11;;;;;;;0.00;0.00;;;6.00;61.00;;;;;;5054683;28;20061;-72
2021/11/23 05:28:36;;;;;;;0.00;0.00;;;6.10;60.80;;;;;;5055241;28;20063;-72
2021/11/23 05:31:02;;;;;;;0.00;0.00;;;6.00;60.50;;;;;;5055551;28;20075;-71
2021/11/23 05:33:28;;;;;;;0.00;0.00;;;6.10;60.70;;;;;;5054623;28;20032;-73
2021/11/23 05:35:53;;;;;;;0.00;0.00;;;6.00;60.60;;;;;;5055489;28;20414;-72
2021/11/23 05:38:20;;;;;;;0.00;0.00;;;6.00;60.70;;;;;;5055286;28;20100;-72
2021/11/23 05:40:46;;;;;;;0.00;0.00;;;6.00;60.70;;;;;;5055285;28;20040;-70
2021/11/23 05:43:14;;;;;;;0.00;0.00;;;6.00;60.30;;;;;;5055215;28;20029;-72
2021/11/23 05:45:40;;;;;;;0.00;0.00;;;6.00;60.10;;;;;;5054944;28;20036;-72
2021/11/23 05:48:07;;;;;;;0.00;0.00;;;6.00;59.90;;;;;;5055116;28;20025;-72
2021/11/23 05:50:33;;;;;;;0.00;0.00;;;6.00;59.70;;;;;;5054803;28;20502;-71
2021/11/23 05:52:58;;;;;;;0.00;0.00;;;5.90;59.40;;;;;;5054826;28;20071;-71
2021/11/23 05:55:24;;;;;;;0.00;0.00;;;5.90;59.40;;;;;;5055208;28;20029;-71
2021/11/23 05:57:50;;;;;;;0.00;0.00;;;5.90;59.60;;;;;;5054526;28;20033;-74
2021/11/23 06:00:16;;;;;;;0.00;0.00;;;5.90;59.40;;;;;;5055103;28;20029;-73
2021/11/23 06:02:41;;;;;;;0.00;0.00;;;6.00;59.30;;;;;;5054506;28;20491;-71
2021/11/23 06:05:07;;;;;;;0.00;0.00;;;5.90;59.40;;;;;;5054840;28;20082;-71
2021/11/23 06:07:33;;;;;;;0.08;0.00;;;5.90;59.50;;;;;;5054703;28;20029;-71
2021/11/23 06:09:59;;;;;;;0.00;0.00;;;6.00;59.60;;;;;;5051530;28;20041;-71
2021/11/23 06:12:28;;;;;;;0.00;0.00;;;6.00;59.40;;;;;;5054845;28;20423;-71
2021/11/23 06:14:54;;;;;;;0.00;0.00;;;6.00;59.10;;;;;;5054487;28;20032;-70
2021/11/23 06:17:19;;;;;;;0.00;0.00;;;6.00;59.00;;;;;;5053206;28;20162;-69
2021/11/23 06:19:45;;;;;;;0.00;0.00;;;6.10;59.20;;;;;;5054841;28;20104;-71
2021/11/23 06:22:12;;;;;;;0.00;0.00;;;6.10;59.20;;;;;;5054380;28;20025;-71
2021/11/23 06:24:38;;;;;;;0.00;0.00;;;6.10;59.20;;;;;;5054283;28;20047;-71
2021/11/23 06:27:04;;;;;;;0.00;0.00;;;6.10;59.20;;;;;;5054153;28;20025;-72
2021/11/23 06:29:30;;;;;;;0.00;0.00;;;6.10;59.20;;;;;;5053933;28;20041;-72
2021/11/23 06:31:58;;;;;;;0.00;0.00;;;6.10;59.20;;;;;;5053948;28;20422;-72
2021/11/23 06:34:23;;;;;;;0.00;0.00;;;6.20;59.10;;;;;;5054137;28;20035;-71
2021/11/23 06:36:49;;;;;;;0.00;0.00;;;6.30;58.90;;;;;;5053203;28;20044;-73
2021/11/23 06:39:15;;;;;;;0.00;0.00;;;6.30;58.90;;;;;;5053519;28;20056;-71
2021/11/23 06:41:41;;;;;;;0.00;0.00;;;6.40;58.50;;;;;;5053823;28;20028;-72
2021/11/23 06:44:08;;;;;;;0.00;0.00;;;6.40;58.30;;;;;;5053596;28;20056;-73
2021/11/23 06:46:34;;;;;;;0.00;0.00;;;6.50;58.40;;;;;;5054007;28;20028;-72
2021/11/23 06:49:01;;;;;;;0.00;0.00;;;6.40;58.20;;;;;;5053457;28;20029;-71
2021/11/23 06:51:26;;;;;;;0.00;0.00;;;6.50;58.20;;;;;;5053689;28;20390;-72
2021/11/23 06:53:52;;;;;;;0.00;0.00;;;6.50;57.50;;;;;;5053375;28;20029;-71
2021/11/23 06:56:18;;;;;;;0.00;0.00;;;6.50;56.70;;;;;;5054180;28;20028;-72
2021/11/23 06:58:44;;;;;;;0.00;0.00;;;6.60;56.80;;;;;;5053705;28;20029;-72
2021/11/23 07:01:09;;;;;;;0.00;0.00;;;6.70;57.10;;;;;;5053710;28;20473;-71
2021/11/23 07:03:35;;;;;;;0.00;0.00;;;6.80;57.10;;;;;;5053657;28;20474;-71
2021/11/23 07:06:01;;;;;;;0.00;0.00;;;6.90;57.00;;;;;;5053383;28;20078;-73
2021/11/23 07:08:27;;;;;;;0.00;0.00;;;7.00;56.30;;;;;;5054034;28;20025;-71
2021/11/23 07:10:53;;;;;;;0.00;0.00;;;7.00;56.00;;;;;;5053178;28;20382;-73
2021/11/23 07:13:19;;;;;;;0.00;0.00;;;7.00;56.20;;;;;;5053386;28;20037;-72
2021/11/23 07:15:46;;;;;;;0.00;0.00;;;7.00;55.50;;;;;;5053178;28;20035;-72
2021/11/23 07:18:12;;;;;;;0.00;0.00;;;7.00;55.40;;;;;;5051710;28;20025;-72
2021/11/23 07:20:38;;;;;;;0.00;0.00;;;7.00;55.60;;;;;;5053256;28;20036;-73
2021/11/23 07:23:04;;;;;;;0.00;0.00;;;7.00;55.60;;;;;;5053206;28;20116;-72
2021/11/23 07:25:30;;;;;;;0.00;0.00;;;7.00;55.60;;;;;;5053033;28;20029;-73
2021/11/23 07:27:58;;;;;;;0.00;0.00;;;7.00;55.60;;;;;;5053056;28;20087;-73
2021/11/23 07:30:23;;;;;;;0.00;0.00;;;7.10;55.60;;;;;;5052111;28;20123;-72
2021/11/23 07:32:49;;;;;;;0.00;0.00;;;7.10;55.60;;;;;;5051788;28;20453;-73
2021/11/23 07:35:18;;;;;;;0.00;0.00;;;7.10;55.00;;;;;;5052992;28;20091;-74
2021/11/23 07:37:45;;;;;;;0.00;0.00;;;7.10;54.20;;;;;;5051857;28;20083;-72
2021/11/23 07:40:11;;;;;;;0.00;0.00;;;7.10;54.30;;;;;;5052976;28;20086;-72
2021/11/23 07:42:38;;;;;;;0.00;0.00;;;7.20;54.50;;;;;;5052465;28;20033;-73
2021/11/23 07:45:04;;;;;;;0.00;0.00;;;7.30;54.60;;;;;;5047239;28;20064;-73
2021/11/23 07:47:31;;;;;;;0.00;0.00;;;7.40;54.70;;;;;;5053056;28;20040;-73
2021/11/23 07:49:57;;;;;;;0.00;0.00;;;7.60;54.60;;;;;;5056877;28;20366;-72
2021/11/23 07:52:22;;;;;;;0.00;0.00;;;7.70;54.50;;;;;;5056710;28;20497;-71
2021/11/23 07:54:48;;;;;;;0.00;0.00;;;7.90;54.20;;;;;;5056519;28;20025;-72
2021/11/23 07:57:14;;;;;;;0.00;0.00;;;7.90;53.10;;;;;;5057013;28;20033;-73
2021/11/23 07:59:40;;;;;;;0.00;0.00;;;8.00;52.80;;;;;;5056842;28;20158;-72
2021/11/23 08:02:05;;;;;;;0.00;0.00;;;8.00;52.30;;;;;;5056659;28;20074;-72
2021/11/23 08:04:31;;;;;;;0.00;0.00;;;8.20;52.50;;;;;;5056844;28;20061;-71
2021/11/23 08:06:57;;;;;;;0.00;0.00;;;8.40;51.90;;;;;;5056651;28;20356;-72
2021/11/23 08:09:22;;;;;;;0.00;0.00;;;8.70;50.90;;;;;;5056867;28;20033;-72
2021/11/23 08:11:48;;;;;;;0.00;0.00;;;8.70;50.10;;;;;;5056425;28;20036;-72
2021/11/23 08:14:14;;;;;;;0.00;0.00;;;8.80;50.50;;;;;;5055851;28;20100;-72
2021/11/23 08:16:40;;;;;;;0.00;0.00;;;8.90;50.80;;;;;;5055439;28;20086;-72
2021/11/23 08:19:05;;;;;;;0.00;0.00;;;9.10;50.90;;;;;;5055271;28;20355;-73
2021/11/23 08:21:31;;;;;;;0.00;0.00;;;9.30;50.60;;;;;;5054910;28;20112;-73
2021/11/23 08:23:58;;;;;;;0.00;0.00;;;9.30;50.40;;;;;;5055183;28;20017;-73
2021/11/23 08:26:25;;;;;;;0.00;0.00;;;9.40;50.20;;;;;;5055374;28;20443;-72
2021/11/23 08:28:51;;;;;;;0.00;0.00;;;9.60;50.10;;;;;;5055767;28;20375;-73
2021/11/23 08:31:17;;;;;;;0.00;0.00;;;9.60;49.60;;;;;;5055049;28;20037;-72
2021/11/23 08:33:43;;;;;;;0.00;0.00;;;9.70;49.60;;;;;;5056650;28;20033;-73
2021/11/23 08:36:09;;;;;;;0.00;0.00;;;10.70;50.20;;;;;;5055591;28;20045;-73
2021/11/23 08:38:36;;;;;;;0.00;0.00;;;12.20;49.90;;;;;;5056469;28;20029;-73
2021/11/23 08:41:02;;;;;;;0.10;0.10;;;13.70;48.70;;;;;;5054947;28;20049;-71
2021/11/23 08:43:27;;;;;;;0.00;0.00;;;15.20;46.80;;;;;;5056038;28;20069;-71
2021/11/23 08:45:53;;;;;;;0.00;0.00;;;16.50;44.60;;;;;;5055896;28;20035;-72
2021/11/23 08:48:19;;;;;;;0.00;0.00;;;17.60;42.40;;;;;;5056048;28;20100;-72
2021/11/23 08:50:45;;;;;;;0.00;0.00;;;18.50;40.30;;;;;;5053949;28;20069;-73
2021/11/23 08:53:11;;;;;;;0.00;0.00;;;19.40;37.80;;;;;;5054833;28;20037;-74
2021/11/23 08:55:38;;;;;;;0.00;0.00;;;20.20;36.00;;;;;;5055899;28;20025;-72
2021/11/23 08:58:05;;;;;;;0.00;0.00;;;20.90;34.50;;;;;;5055932;28;20083;-71
2021/11/23 09:00:32;;;;;;;0.00;0.00;;;21.50;33.50;;;;;;5054854;28;20029;-72
2021/11/23 09:02:59;;;;;;;0.00;0.00;;;21.90;32.60;;;;;;5055932;28;20021;-72
2021/11/23 09:05:31;;;;;;;0.00;0.00;;;22.20;32.00;;;;;;5055907;28;20078;-72
2021/11/23 09:07:59;;;;;;;0.00;0.00;;;22.50;31.40;;;;;;5055877;28;20155;-72
2021/11/23 09:10:27;;;;;;;0.00;0.00;;;22.60;31.10;;;;;;5055624;28;20029;-72
2021/11/23 09:12:56;;;;;;;0.00;0.00;;;22.70;30.70;;;;;;5055434;28;20061;-73
2021/11/23 09:15:23;;;;;;;0.00;0.00;;;22.80;30.20;;;;;;5055621;28;20025;-72
2021/11/23 09:17:49;;;;;;;0.00;0.00;;;22.70;30.00;;;;;;5054386;28;20025;-72
2021/11/23 09:20:17;;;;;;;0.00;0.00;;;22.80;30.00;;;;;;5056164;28;20373;-73
2021/11/23 09:22:44;;;;;;;0.00;0.00;;;23.00;29.90;;;;;;5055347;28;20549;-73
2021/11/23 09:25:11;;;;;;;0.00;0.00;;;23.20;29.80;;;;;;5054853;28;20398;-72
2021/11/23 09:27:37;;;;;;;0.00;0.00;;;23.60;29.40;;;;;;5055140;28;20033;-72
2021/11/23 09:30:06;;;;;;;0.00;0.00;;;23.80;29.10;;;;;;5055194;28;20135;-72
2021/11/23 09:32:32;;;;;;;0.00;0.00;;;24.10;28.90;;;;;;5054782;28;20555;-72
2021/11/23 09:34:59;;;;;;;0.00;0.00;;;24.30;28.70;;;;;;5054845;28;20033;-72
2021/11/23 09:37:25;;;;;;;0.00;0.00;;;24.30;28.60;;;;;;5055389;28;20102;-71
2021/11/23 09:39:51;;;;;;;0.00;0.00;;;24.40;28.50;;;;;;5054814;28;20037;-72
2021/11/23 09:42:18;;;;;;;0.00;0.00;;;24.50;28.30;;;;;;5055046;28;20475;-71
2021/11/23 09:44:44;;;;;;;0.00;0.00;;;24.70;28.30;;;;;;5054353;28;20029;-71
2021/11/23 09:47:13;;;;;;;0.00;0.00;;;25.10;28.20;;;;;;5051260;28;20360;-72
2021/11/23 09:49:39;;;;;;;0.00;0.00;;;25.60;27.90;;;;;;5054700;28;20463;-75
2021/11/23 09:52:06;;;;;;;0.00;0.00;;;25.90;27.60;;;;;;5054755;28;20037;-72
2021/11/23 09:54:33;;;;;;;0.00;0.00;;;26.10;27.50;;;;;;5055165;28;20029;-75
2021/11/23 09:56:58;;;;;;;0.00;0.00;;;26.30;27.30;;;;;;5055049;28;20035;-80
2021/11/23 09:59:24;;;;;;;0.00;0.00;;;26.50;27.20;;;;;;5054772;28;20029;-81
2021/11/23 10:01:56;;;;;;;0.00;0.00;;;26.60;27.10;;;;;;5054337;28;20026;-80
2021/11/23 10:04:24;;;;;;;0.00;0.00;;;26.50;26.80;;;;;;5055040;28;20025;-79
2021/11/23 10:06:59;;;;;;;0.00;0.00;;;26.50;26.90;;;;;;5054396;28;20083;-80
2021/11/23 10:09:32;;;;;;;0.00;0.00;;;26.70;26.80;;;;;;5054485;28;20116;-80
2021/11/23 10:12:20;;;;;;;0.00;0.00;;;27.00;26.70;;;;;;5054118;28;20025;-79
2021/11/23 10:15:14;;;;;;;0.00;0.00;;;27.10;26.30;;;;;;5053989;28;20083;-79
2021/11/23 10:17:42;;;;;;;0.00;0.00;;;27.40;26.30;;;;;;5034619;28;20029;-79
2021/11/23 10:20:32;;;;;;;0.00;0.00;;;27.70;26.50;;;;;;5034242;28;20033;-79
2021/11/23 10:23:29;;;;;;;0.00;0.00;;;27.70;26.10;;;;;;5034569;28;20030;-79
2021/11/23 10:26:14;;;;;;;0.00;0.00;;;27.90;26.10;;;;;;5045390;28;20060;-78
2021/11/23 10:29:04;;;;;;;0.00;0.00;;;27.90;26.00;;;;;;5052523;28;20052;-80
2021/11/23 10:31:34;;;;;;;0.00;0.00;;;27.80;25.90;;;;;;5045498;28;20041;-80
2021/11/23 10:34:03;;;;;;;0.00;0.00;;;27.80;25.90;;;;;;5054013;28;20040;-79
2021/11/23 10:36:35;;;;;;;0.00;0.00;;;27.90;25.90;;;;;;5051919;28;20041;-81
2021/11/23 10:39:15;;;;;;;0.00;0.00;;;28.00;25.80;;;;;;5052275;28;20048;-79
2021/11/23 10:41:44;;;;;;;0.00;0.00;;;28.00;25.80;;;;;;5052368;28;20079;-79
2021/11/23 10:44:23;;;;;;;0.00;0.00;;;28.30;25.80;;;;;;5053798;28;20021;-79
2021/11/23 10:46:53;;;;;;;0.00;0.00;;;28.40;25.60;;;;;;5053509;28;20387;-79
2021/11/23 10:49:31;;;;;;;0.00;0.00;;;28.50;25.60;;;;;;5054025;28;20021;-81
2021/11/23 10:51:58;;;;;;;0.00;0.00;;;28.50;25.50;;;;;;5053984;28;20033;-79
2021/11/23 10:54:24;;;;;;;0.00;0.00;;;28.70;25.70;;;;;;5053843;28;20025;-80
2021/11/23 10:57:03;;;;;;;0.00;0.00;;;28.80;25.60;;;;;;5053674;28;20351;-79
2021/11/23 10:59:29;;;;;;;0.00;0.00;;;28.70;25.40;;;;;;5049999;28;20025;-80
2021/11/23 11:01:56;;;;;;;0.00;0.00;;;28.30;25.40;;;;;;5053235;28;20043;-80
2021/11/23 11:04:22;;;;;;;0.00;0.00;;;27.80;25.50;;;;;;5053525;28;20463;-79
2021/11/23 11:06:49;;;;;;;0.00;0.00;;;27.50;25.60;;;;;;5052050;28;20023;-79
2021/11/23 11:09:18;;;;;;;0.00;0.00;;;27.60;25.50;;;;;;5053351;28;20147;-79
2021/11/23 11:11:43;;;;;;;0.00;0.00;;;27.70;25.50;;;;;;5052083;28;20376;-78
2021/11/23 11:14:15;;;;;;;0.00;0.00;;;27.70;26.00;;;;;;5053085;28;20023;-81
2021/11/23 11:16:41;;;;;;;0.00;0.00;;;27.80;25.50;;;;;;5053250;28;20112;-80
2021/11/23 11:19:08;;;;;;;0.00;0.00;;;27.90;25.60;;;;;;5033103;28;20446;-80
2021/11/23 11:21:41;;;;;;;0.00;0.00;;;28.10;25.50;;;;;;5032443;28;20485;-79
2021/11/23 11:24:34;;;;;;;0.00;0.00;;;28.20;25.30;;;;;;5032810;28;20026;-80
2021/11/23 11:27:22;;;;;;;0.00;0.00;;;28.30;25.30;;;;;;5049035;28;20415;-86
2021/11/23 11:29:47;;;;;;;0.00;0.00;;;28.50;25.40;;;;;;5053058;28;20381;-81
2021/11/23 11:32:34;;;;;;;0.00;0.00;;;28.60;25.40;;;;;;5046676;28;20028;-79
2021/11/23 11:35:21;;;;;;;0.00;0.00;;;28.40;25.10;;;;;;5050834;28;20025;-78
2021/11/23 11:37:46;;;;;;;0.00;0.00;;;28.50;25.20;;;;;;5032129;28;20045;-80
2021/11/23 11:40:41;;;;;;;0.00;0.00;;;28.60;25.40;;;;;;5032300;28;20025;-80
2021/11/23 11:43:11;;;;;;;0.00;0.00;;;28.70;25.20;;;;;;5029206;28;20044;-80
2021/11/23 11:45:57;;;;;;;0.00;0.00;;;28.80;25.30;;;;;;5041413;28;20017;-79
2021/11/23 11:48:36;;;;;;;0.00;0.00;;;28.70;25.10;;;;;;5053232;28;20037;-80
2021/11/23 11:51:31;;;;;;;0.00;0.00;;;28.60;25.20;;;;;;5052990;28;20032;-78
2021/11/23 11:54:00;;;;;;;0.00;0.00;;;28.50;25.20;;;;;;5053505;28;20025;-79
2021/11/23 11:56:35;;;;;;;0.00;0.00;;;28.50;25.30;;;;;;5053258;28;20066;-80
2021/11/23 11:59:23;;;;;;;0.00;0.00;;;28.10;25.10;;;;;;5053016;28;20426;-78
2021/11/23 12:02:04;;;;;;;0.00;0.00;;;27.60;25.20;;;;;;5051393;28;20021;-79
2021/11/23 12:04:33;;;;;;;0.00;0.00;;;27.10;25.20;;;;;;5053299;28;20033;-80
2021/11/23 12:07:10;;;;;;;0.00;0.00;;;27.10;25.40;;;;;;5047597;28;20017;-79
2021/11/23 12:09:42;;;;;;;0.00;0.00;;;27.20;25.50;;;;;;5042319;28;20025;-80
2021/11/23 12:12:10;;;;;;;0.00;0.00;;;27.40;25.50;;;;;;5053210;28;20116;-80
2021/11/23 12:14:38;;;;;;;0.00;0.00;;;27.50;25.40;;;;;;5053176;28;20076;-80
2021/11/23 12:17:43;;;;;;;0.00;0.00;;;27.60;25.30;;;;;;5052908;28;20017;-80
2021/11/23 12:20:27;;;;;;;0.00;0.00;;;27.60;25.30;;;;;;5052676;28;20037;-80
2021/11/23 12:22:53;;;;;;;0.00;0.00;;;26.50;25.30;;;;;;5053010;28;20032;-80
2021/11/23 12:25:20;;;;;;;0.00;0.00;;;25.10;25.60;;;;;;5052322;28;20025;-81
2021/11/23 12:27:50;;;;;;;0.00;0.00;;;23.70;26.20;;;;;;5052922;28;20112;-80
2021/11/23 12:30:20;;;;;;;0.00;0.00;;;22.20;26.80;;;;;;5053119;28;20021;-79
2021/11/23 12:32:47;;;;;;;0.00;0.00;;;20.90;27.50;;;;;;5051952;28;20450;-80
2021/11/23 12:35:16;;;;;;;0.00;0.00;;;19.80;28.20;;;;;;5054166;28;20017;-79
2021/11/23 12:37:46;;;;;;;0.00;0.00;;;18.80;28.80;;;;;;5056848;28;20017;-80
2021/11/23 12:40:24;;;;;;;0.00;0.00;;;18.10;29.40;;;;;;5056389;28;20417;-80
2021/11/23 12:42:54;;;;;;;0.00;0.00;;;17.50;29.90;;;;;;5056056;28;20017;-80
2021/11/23 12:45:33;;;;;;;0.00;0.00;;;17.00;30.30;;;;;;5056209;28;20033;-79
2021/11/23 12:48:00;;;;;;;0.00;0.00;;;16.90;31.00;;;;;;5036343;28;20120;-80
2021/11/23 12:50:31;;;;;;;0.00;0.00;;;17.30;30.90;;;;;;5036174;28;20017;-81
2021/11/23 12:53:02;;;;;;;0.00;0.00;;;17.50;30.70;;;;;;5043312;28;20028;-80
2021/11/23 12:55:28;;;;;;;0.00;0.00;;;17.50;30.70;;;;;;5055377;28;20016;-81
2021/11/23 12:57:54;;;;;;;0.00;0.00;;;17.40;30.80;;;;;;5053699;28;20085;-81